sensor_id;sensor_type;location;lat;lon;timestamp;P1;durP1;ratioP1;P2;durP2;ratioP2
14373;SDS011;7270;49.004;12.066;2023-03-29T00:01:36;1.00;;;1.00;;
14373;SDS011;7270;49.004;12.066;2023-03-29T00:04:06;1.17;;;1.17;;
14373;SDS011;7270;49.004;12.066;2023-03-29T00:06:33;1.00;;;1.00;;
14373;SDS011;7270;49.004;12.066;2023-03-29T00:08:59;1.10;;;1.10;;
14373;SDS011;7270;49.004;12.066;2023-03-29T00:11:29;1.10;;;1.10;;
14373;SDS011;7270;49.004;12.066;2023-03-29T00:13:55;1.10;;;1.10;;
14373;SDS011;7270;49.004;12.066;2023-03-29T00:16:23;1.10;;;1.10;;
14373;SDS011;7270;49.004;12.066;2023-03-29T00:18:49;1.03;;;1.03;;
14373;SDS011;7270;49.004;12.066;2023-03-29T00:21:15;1.10;;;1.10;;
14373;SDS011;7270;49.004;12.066;2023-03-29T00:23:42;1.00;;;1.00;;
14373;SDS011;7270;49.004;12.066;2023-03-29T00:26:08;1.10;;;1.10;;
14373;SDS011;7270;49.004;12.066;2023-03-29T00:28:34;1.10;;;1.10;;
14373;SDS011;7270;49.004;12.066;2023-03-29T00:31:04;1.10;;;1.10;;
14373;SDS011;7270;49.004;12.066;2023-03-29T00:33:32;1.10;;;1.10;;
14373;SDS011;7270;49.004;12.066;2023-03-29T00:35:59;1.10;;;1.10;;
14373;SDS011;7270;49.004;12.066;2023-03-29T00:38:25;1.10;;;1.10;;
14373;SDS011;7270;49.004;12.066;2023-03-29T00:40:52;1.10;;;1.10;;
14373;SDS011;7270;49.004;12.066;2023-03-29T00:43:19;1.00;;;1.00;;
14373;SDS011;7270;49.004;12.066;2023-03-29T00:45:46;1.00;;;1.00;;
14373;SDS011;7270;49.004;12.066;2023-03-29T00:48:13;1.10;;;1.10;;
14373;SDS011;7270;49.004;12.066;2023-03-29T00:50:42;1.00;;;1.00;;
14373;SDS011;7270;49.004;12.066;2023-03-29T00:53:10;1.10;;;1.10;;
14373;SDS011;7270;49.004;12.066;2023-03-29T00:55:37;1.00;;;1.00;;
14373;SDS011;7270;49.004;12.066;2023-03-29T00:58:07;1.10;;;1.10;;
14373;SDS011;7270;49.004;12.066;2023-03-29T01:00:37;1.10;;;1.10;;
14373;SDS011;7270;49.004;12.066;2023-03-29T01:03:05;1.00;;;1.00;;
14373;SDS011;7270;49.004;12.066;2023-03-29T01:05:37;1.10;;;1.10;;
14373;SDS011;7270;49.004;12.066;2023-03-29T01:08:07;1.10;;;1.10;;
14373;SDS011;7270;49.004;12.066;2023-03-29T01:10:36;1.10;;;1.10;;
14373;SDS011;7270;49.004;12.066;2023-03-29T01:13:05;1.00;;;1.00;;
14373;SDS011;7270;49.004;12.066;2023-03-29T01:15:33;1.00;;;1.00;;
14373;SDS011;7270;49.004;12.066;2023-03-29T01:18:00;1.00;;;1.00;;
14373;SDS011;7270;49.004;12.066;2023-03-29T01:20:30;0.90;;;0.90;;
14373;SDS011;7270;49.004;12.066;2023-03-29T01:23:02;1.00;;;1.00;;
14373;SDS011;7270;49.004;12.066;2023-03-29T01:25:34;1.10;;;1.10;;
14373;SDS011;7270;49.004;12.066;2023-03-29T01:28:06;1.10;;;1.10;;
14373;SDS011;7270;49.004;12.066;2023-03-29T01:30:36;1.10;;;1.10;;
14373;SDS011;7270;49.004;12.066;2023-03-29T01:33:04;1.20;;;1.20;;
14373;SDS011;7270;49.004;12.066;2023-03-29T01:35:33;1.37;;;1.27;;
14373;SDS011;7270;49.004;12.066;2023-03-29T01:38:03;1.40;;;1.30;;
14373;SDS011;7270;49.004;12.066;2023-03-29T01:40:32;1.27;;;1.20;;
14373;SDS011;7270;49.004;12.066;2023-03-29T01:43:00;1.27;;;1.20;;
14373;SDS011;7270;49.004;12.066;2023-03-29T01:45:32;1.33;;;1.23;;
14373;SDS011;7270;49.004;12.066;2023-03-29T01:48:00;1.20;;;1.20;;
14373;SDS011;7270;49.004;12.066;2023-03-29T01:50:31;1.20;;;1.20;;
14373;SDS011;7270;49.004;12.066;2023-03-29T01:53:01;1.30;;;1.20;;
14373;SDS011;7270;49.004;12.066;2023-03-29T01:55:30;1.30;;;1.20;;
14373;SDS011;7270;49.004;12.066;2023-03-29T01:57:57;1.30;;;1.20;;
14373;SDS011;7270;49.004;12.066;2023-03-29T02:00:24;1.20;;;1.20;;
14373;SDS011;7270;49.004;12.066;2023-03-29T02:02:53;1.40;;;1.30;;
14373;SDS011;7270;49.004;12.066;2023-03-29T02:05:21;1.27;;;1.20;;
14373;SDS011;7270;49.004;12.066;2023-03-29T02:07:50;1.40;;;1.30;;
14373;SDS011;7270;49.004;12.066;2023-03-29T02:10:17;1.40;;;1.30;;
14373;SDS011;7270;49.004;12.066;2023-03-29T02:12:44;1.30;;;1.20;;
14373;SDS011;7270;49.004;12.066;2023-03-29T02:15:10;1.30;;;1.20;;
14373;SDS011;7270;49.004;12.066;2023-03-29T02:17:37;1.30;;;1.20;;
14373;SDS011;7270;49.004;12.066;2023-03-29T02:20:06;1.30;;;1.20;;
14373;SDS011;7270;49.004;12.066;2023-03-29T02:22:39;1.30;;;1.20;;
14373;SDS011;7270;49.004;12.066;2023-03-29T02:25:07;1.40;;;1.30;;
14373;SDS011;7270;49.004;12.066;2023-03-29T02:27:34;1.40;;;1.30;;
14373;SDS011;7270;49.004;12.066;2023-03-29T02:30:01;1.30;;;1.20;;
14373;SDS011;7270;49.004;12.066;2023-03-29T02:32:29;1.37;;;1.27;;
14373;SDS011;7270;49.004;12.066;2023-03-29T02:34:59;1.23;;;1.20;;
14373;SDS011;7270;49.004;12.066;2023-03-29T02:37:29;1.20;;;1.20;;
14373;SDS011;7270;49.004;12.066;2023-03-29T02:39:58;1.40;;;1.30;;
14373;SDS011;7270;49.004;12.066;2023-03-29T02:42:25;1.30;;;1.20;;
14373;SDS011;7270;49.004;12.066;2023-03-29T02:44:53;1.30;;;1.20;;
14373;SDS011;7270;49.004;12.066;2023-03-29T02:47:21;1.30;;;1.20;;
14373;SDS011;7270;49.004;12.066;2023-03-29T02:49:49;1.33;;;1.23;;
14373;SDS011;7270;49.004;12.066;2023-03-29T02:52:16;1.30;;;1.20;;
14373;SDS011;7270;49.004;12.066;2023-03-29T02:54:46;1.30;;;1.20;;
14373;SDS011;7270;49.004;12.066;2023-03-29T02:57:14;1.20;;;1.20;;
14373;SDS011;7270;49.004;12.066;2023-03-29T02:59:40;1.20;;;1.20;;
14373;SDS011;7270;49.004;12.066;2023-03-29T03:02:08;1.30;;;1.20;;
14373;SDS011;7270;49.004;12.066;2023-03-29T03:04:35;1.10;;;1.10;;
14373;SDS011;7270;49.004;12.066;2023-03-29T03:07:02;1.10;;;1.10;;
14373;SDS011;7270;49.004;12.066;2023-03-29T03:09:29;1.10;;;1.10;;
14373;SDS011;7270;49.004;12.066;2023-03-29T03:11:57;1.10;;;1.10;;
14373;SDS011;7270;49.004;12.066;2023-03-29T03:14:23;1.10;;;1.10;;
14373;SDS011;7270;49.004;12.066;2023-03-29T03:16:49;1.00;;;1.00;;
14373;SDS011;7270;49.004;12.066;2023-03-29T03:19:16;1.20;;;1.20;;
14373;SDS011;7270;49.004;12.066;2023-03-29T03:21:43;1.30;;;1.20;;
14373;SDS011;7270;49.004;12.066;2023-03-29T03:24:10;1.10;;;1.10;;
14373;SDS011;7270;49.004;12.066;2023-03-29T03:26:37;1.40;;;1.30;;
14373;SDS011;7270;49.004;12.066;2023-03-29T03:29:04;1.23;;;1.20;;
14373;SDS011;7270;49.004;12.066;2023-03-29T03:31:31;1.17;;;1.17;;
14373;SDS011;7270;49.004;12.066;2023-03-29T03:33:57;1.40;;;1.30;;
14373;SDS011;7270;49.004;12.066;2023-03-29T03:36:24;1.20;;;1.20;;
14373;SDS011;7270;49.004;12.066;2023-03-29T03:38:53;1.50;;;1.40;;
14373;SDS011;7270;49.004;12.066;2023-03-29T03:41:19;1.40;;;1.30;;
14373;SDS011;7270;49.004;12.066;2023-03-29T03:43:46;1.40;;;1.30;;
14373;SDS011;7270;49.004;12.066;2023-03-29T03:46:14;1.40;;;1.30;;
14373;SDS011;7270;49.004;12.066;2023-03-29T03:48:41;1.40;;;1.30;;
14373;SDS011;7270;49.004;12.066;2023-03-29T03:51:07;1.40;;;1.30;;
14373;SDS011;7270;49.004;12.066;2023-03-29T03:53:34;1.50;;;1.40;;
14373;SDS011;7270;49.004;12.066;2023-03-29T03:56:00;1.50;;;1.40;;
14373;SDS011;7270;49.004;12.066;2023-03-29T03:58:32;1.27;;;1.20;;
14373;SDS011;7270;49.004;12.066;2023-03-29T04:00:59;1.20;;;1.20;;
14373;SDS011;7270;49.004;12.066;2023-03-29T04:03:26;1.40;;;1.30;;
14373;SDS011;7270;49.004;12.066;2023-03-29T04:05:53;1.30;;;1.20;;
14373;SDS011;7270;49.004;12.066;2023-03-29T04:08:20;1.40;;;1.30;;
14373;SDS011;7270;49.004;12.066;2023-03-29T04:10:50;1.50;;;1.40;;
14373;SDS011;7270;49.004;12.066;2023-03-29T04:13:16;1.40;;;1.30;;
14373;SDS011;7270;49.004;12.066;2023-03-29T04:15:42;1.50;;;1.40;;
14373;SDS011;7270;49.004;12.066;2023-03-29T04:18:10;1.30;;;1.20;;
14373;SDS011;7270;49.004;12.066;2023-03-29T04:20:38;1.40;;;1.30;;
14373;SDS011;7270;49.004;12.066;2023-03-29T04:23:04;1.30;;;1.20;;
14373;SDS011;7270;49.004;12.066;2023-03-29T04:25:30;1.20;;;1.20;;
14373;SDS011;7270;49.004;12.066;2023-03-29T04:27:57;1.40;;;1.30;;
14373;SDS011;7270;49.004;12.066;2023-03-29T04:30:23;1.40;;;1.30;;
14373;SDS011;7270;49.004;12.066;2023-03-29T04:32:50;1.40;;;1.30;;
14373;SDS011;7270;49.004;12.066;2023-03-29T04:35:17;1.60;;;1.50;;
14373;SDS011;7270;49.004;12.066;2023-03-29T04:37:44;1.30;;;1.20;;
14373;SDS011;7270;49.004;12.066;2023-03-29T04:40:12;1.40;;;1.30;;
14373;SDS011;7270;49.004;12.066;2023-03-29T04:42:39;1.40;;;1.30;;
14373;SDS011;7270;49.004;12.066;2023-03-29T04:45:06;1.40;;;1.30;;
14373;SDS011;7270;49.004;12.066;2023-03-29T04:47:33;1.50;;;1.40;;
14373;SDS011;7270;49.004;12.066;2023-03-29T04:50:00;1.27;;;1.23;;
14373;SDS011;7270;49.004;12.066;2023-03-29T04:52:26;1.20;;;1.20;;
14373;SDS011;7270;49.004;12.066;2023-03-29T04:54:58;1.40;;;1.30;;
14373;SDS011;7270;49.004;12.066;2023-03-29T04:57:24;1.33;;;1.27;;
14373;SDS011;7270;49.004;12.066;2023-03-29T04:59:51;1.40;;;1.30;;
14373;SDS011;7270;49.004;12.066;2023-03-29T05:02:17;1.50;;;1.40;;
14373;SDS011;7270;49.004;12.066;2023-03-29T05:04:43;1.40;;;1.30;;
14373;SDS011;7270;49.004;12.066;2023-03-29T05:07:10;1.20;;;1.20;;
14373;SDS011;7270;49.004;12.066;2023-03-29T05:09:37;1.40;;;1.30;;
14373;SDS011;7270;49.004;12.066;2023-03-29T05:12:05;1.30;;;1.20;;
14373;SDS011;7270;49.004;12.066;2023-03-29T05:14:31;1.50;;;1.40;;
14373;SDS011;7270;49.004;12.066;2023-03-29T05:16:58;1.50;;;1.40;;
14373;SDS011;7270;49.004;12.066;2023-03-29T05:19:25;1.40;;;1.30;;
14373;SDS011;7270;49.004;12.066;2023-03-29T05:21:52;1.50;;;1.40;;
14373;SDS011;7270;49.004;12.066;2023-03-29T05:24:25;1.40;;;1.30;;
14373;SDS011;7270;49.004;12.066;2023-03-29T05:26:51;1.40;;;1.30;;
14373;SDS011;7270;49.004;12.066;2023-03-29T05:29:19;1.40;;;1.30;;
14373;SDS011;7270;49.004;12.066;2023-03-29T05:31:45;1.40;;;1.30;;
14373;SDS011;7270;49.004;12.066;2023-03-29T05:34:11;1.40;;;1.30;;
14373;SDS011;7270;49.004;12.066;2023-03-29T05:36:38;1.40;;;1.30;;
14373;SDS011;7270;49.004;12.066;2023-03-29T05:39:04;1.40;;;1.30;;
14373;SDS011;7270;49.004;12.066;2023-03-29T05:41:31;1.30;;;1.20;;
14373;SDS011;7270;49.004;12.066;2023-03-29T05:43:58;1.40;;;1.30;;
14373;SDS011;7270;49.004;12.066;2023-03-29T05:46:26;1.40;;;1.30;;
14373;SDS011;7270;49.004;12.066;2023-03-29T05:48:52;1.20;;;1.20;;
14373;SDS011;7270;49.004;12.066;2023-03-29T05:51:18;1.40;;;1.30;;
14373;SDS011;7270;49.004;12.066;2023-03-29T05:53:48;1.30;;;1.20;;
14373;SDS011;7270;49.004;12.066;2023-03-29T05:56:14;1.30;;;1.20;;
14373;SDS011;7270;49.004;12.066;2023-03-29T05:58:41;1.50;;;1.40;;
14373;SDS011;7270;49.004;12.066;2023-03-29T06:01:09;1.40;;;1.30;;
14373;SDS011;7270;49.004;12.066;2023-03-29T06:03:37;1.40;;;1.30;;
14373;SDS011;7270;49.004;12.066;2023-03-29T06:06:04;1.40;;;1.30;;
14373;SDS011;7270;49.004;12.066;2023-03-29T06:08:30;1.20;;;1.20;;
14373;SDS011;7270;49.004;12.066;2023-03-29T06:10:57;1.40;;;1.30;;
14373;SDS011;7270;49.004;12.066;2023-03-29T06:13:24;1.10;;;1.10;;
14373;SDS011;7270;49.004;12.066;2023-03-29T06:15:51;1.40;;;1.30;;
14373;SDS011;7270;49.004;12.066;2023-03-29T06:18:17;1.40;;;1.30;;
14373;SDS011;7270;49.004;12.066;2023-03-29T06:20:47;1.30;;;1.20;;
14373;SDS011;7270;49.004;12.066;2023-03-29T06:23:15;1.50;;;1.40;;
14373;SDS011;7270;49.004;12.066;2023-03-29T06:25:41;1.40;;;1.30;;
14373;SDS011;7270;49.004;12.066;2023-03-29T06:28:08;1.40;;;1.30;;
14373;SDS011;7270;49.004;12.066;2023-03-29T06:30:35;1.40;;;1.30;;
14373;SDS011;7270;49.004;12.066;2023-03-29T06:33:02;1.40;;;1.30;;
14373;SDS011;7270;49.004;12.066;2023-03-29T06:35:30;1.30;;;1.20;;
14373;SDS011;7270;49.004;12.066;2023-03-29T06:37:58;1.50;;;1.40;;
14373;SDS011;7270;49.004;12.066;2023-03-29T06:40:24;1.40;;;1.30;;
14373;SDS011;7270;49.004;12.066;2023-03-29T06:42:51;1.50;;;1.40;;
14373;SDS011;7270;49.004;12.066;2023-03-29T06:45:22;1.40;;;1.30;;
14373;SDS011;7270;49.004;12.066;2023-03-29T06:47:48;1.30;;;1.20;;
14373;SDS011;7270;49.004;12.066;2023-03-29T06:50:14;1.30;;;1.20;;
14373;SDS011;7270;49.004;12.066;2023-03-29T06:52:41;1.20;;;1.20;;
14373;SDS011;7270;49.004;12.066;2023-03-29T06:55:09;1.40;;;1.30;;
14373;SDS011;7270;49.004;12.066;2023-03-29T06:57:36;1.40;;;1.30;;
14373;SDS011;7270;49.004;12.066;2023-03-29T07:00:03;1.40;;;1.30;;
14373;SDS011;7270;49.004;12.066;2023-03-29T07:02:38;1.20;;;1.20;;
14373;SDS011;7270;49.004;12.066;2023-03-29T07:05:05;1.13;;;1.13;;
14373;SDS011;7270;49.004;12.066;2023-03-29T07:07:35;1.40;;;1.30;;
14373;SDS011;7270;49.004;12.066;2023-03-29T07:10:19;1.40;;;1.30;;
14373;SDS011;7270;49.004;12.066;2023-03-29T07:12:46;1.40;;;1.30;;
14373;SDS011;7270;49.004;12.066;2023-03-29T07:15:13;1.40;;;1.30;;
14373;SDS011;7270;49.004;12.066;2023-03-29T07:17:39;1.40;;;1.30;;
14373;SDS011;7270;49.004;12.066;2023-03-29T07:20:06;1.30;;;1.20;;
14373;SDS011;7270;49.004;12.066;2023-03-29T07:22:37;1.40;;;1.30;;
14373;SDS011;7270;49.004;12.066;2023-03-29T07:25:04;1.30;;;1.20;;
14373;SDS011;7270;49.004;12.066;2023-03-29T07:27:34;1.40;;;1.30;;
14373;SDS011;7270;49.004;12.066;2023-03-29T07:30:01;1.20;;;1.20;;
14373;SDS011;7270;49.004;12.066;2023-03-29T07:32:28;1.20;;;1.20;;
14373;SDS011;7270;49.004;12.066;2023-03-29T07:34:55;1.20;;;1.20;;
14373;SDS011;7270;49.004;12.066;2023-03-29T07:37:21;1.40;;;1.30;;
14373;SDS011;7270;49.004;12.066;2023-03-29T07:39:48;1.40;;;1.30;;
14373;SDS011;7270;49.004;12.066;2023-03-29T07:42:15;1.40;;;1.30;;
14373;SDS011;7270;49.004;12.066;2023-03-29T07:44:43;1.37;;;1.30;;
14373;SDS011;7270;49.004;12.066;2023-03-29T07:47:09;1.40;;;1.30;;
14373;SDS011;7270;49.004;12.066;2023-03-29T07:49:36;1.40;;;1.30;;
14373;SDS011;7270;49.004;12.066;2023-03-29T07:52:03;1.40;;;1.30;;
14373;SDS011;7270;49.004;12.066;2023-03-29T07:54:29;1.50;;;1.40;;
14373;SDS011;7270;49.004;12.066;2023-03-29T07:56:57;1.10;;;1.10;;
14373;SDS011;7270;49.004;12.066;2023-03-29T07:59:23;1.10;;;1.10;;
14373;SDS011;7270;49.004;12.066;2023-03-29T08:01:51;1.17;;;1.17;;
14373;SDS011;7270;49.004;12.066;2023-03-29T08:04:18;1.30;;;1.30;;
14373;SDS011;7270;49.004;12.066;2023-03-29T08:06:44;1.10;;;1.10;;
14373;SDS011;7270;49.004;12.066;2023-03-29T08:09:18;1.10;;;1.10;;
14373;SDS011;7270;49.004;12.066;2023-03-29T08:11:44;1.10;;;1.10;;
14373;SDS011;7270;49.004;12.066;2023-03-29T08:14:10;1.00;;;1.00;;
14373;SDS011;7270;49.004;12.066;2023-03-29T08:16:36;1.00;;;1.00;;
14373;SDS011;7270;49.004;12.066;2023-03-29T08:19:04;1.10;;;1.10;;
14373;SDS011;7270;49.004;12.066;2023-03-29T08:21:31;1.00;;;1.00;;
14373;SDS011;7270;49.004;12.066;2023-03-29T08:23:57;1.03;;;1.03;;
14373;SDS011;7270;49.004;12.066;2023-03-29T08:26:24;1.10;;;1.10;;
14373;SDS011;7270;49.004;12.066;2023-03-29T08:28:50;1.00;;;1.00;;
14373;SDS011;7270;49.004;12.066;2023-03-29T08:31:17;1.00;;;1.00;;
14373;SDS011;7270;49.004;12.066;2023-03-29T08:33:43;1.20;;;1.20;;
14373;SDS011;7270;49.004;12.066;2023-03-29T08:36:11;1.10;;;1.10;;
14373;SDS011;7270;49.004;12.066;2023-03-29T08:38:37;1.00;;;1.00;;
14373;SDS011;7270;49.004;12.066;2023-03-29T08:41:07;1.00;;;1.00;;
14373;SDS011;7270;49.004;12.066;2023-03-29T08:43:50;1.00;;;1.00;;
14373;SDS011;7270;49.004;12.066;2023-03-29T08:46:20;1.10;;;1.10;;
14373;SDS011;7270;49.004;12.066;2023-03-29T08:48:49;1.10;;;1.10;;
14373;SDS011;7270;49.004;12.066;2023-03-29T08:51:20;1.00;;;1.00;;
14373;SDS011;7270;49.004;12.066;2023-03-29T08:53:48;0.90;;;0.90;;
14373;SDS011;7270;49.004;12.066;2023-03-29T08:56:17;0.90;;;0.90;;
14373;SDS011;7270;49.004;12.066;2023-03-29T08:58:44;1.00;;;1.00;;
14373;SDS011;7270;49.004;12.066;2023-03-29T09:01:12;1.10;;;1.10;;
14373;SDS011;7270;49.004;12.066;2023-03-29T09:03:39;0.90;;;0.90;;
14373;SDS011;7270;49.004;12.066;2023-03-29T09:06:08;0.97;;;0.97;;
14373;SDS011;7270;49.004;12.066;2023-03-29T09:08:36;0.90;;;0.90;;
14373;SDS011;7270;49.004;12.066;2023-03-29T09:11:07;1.00;;;1.00;;
14373;SDS011;7270;49.004;12.066;2023-03-29T09:13:38;1.00;;;1.00;;
14373;SDS011;7270;49.004;12.066;2023-03-29T09:16:07;0.90;;;0.90;;
14373;SDS011;7270;49.004;12.066;2023-03-29T09:18:39;0.90;;;0.90;;
14373;SDS011;7270;49.004;12.066;2023-03-29T09:21:09;1.00;;;1.00;;
14373;SDS011;7270;49.004;12.066;2023-03-29T09:23:48;1.00;;;1.00;;
14373;SDS011;7270;49.004;12.066;2023-03-29T09:26:22;0.90;;;0.90;;
14373;SDS011;7270;49.004;12.066;2023-03-29T09:28:54;0.90;;;0.90;;
14373;SDS011;7270;49.004;12.066;2023-03-29T09:31:26;0.90;;;0.90;;
14373;SDS011;7270;49.004;12.066;2023-03-29T09:33:55;0.90;;;0.90;;
14373;SDS011;7270;49.004;12.066;2023-03-29T09:36:23;1.00;;;1.00;;
14373;SDS011;7270;49.004;12.066;2023-03-29T09:38:58;1.00;;;1.00;;
14373;SDS011;7270;49.004;12.066;2023-03-29T09:41:26;0.90;;;0.90;;
14373;SDS011;7270;49.004;12.066;2023-03-29T09:43:54;1.07;;;1.07;;
14373;SDS011;7270;49.004;12.066;2023-03-29T09:46:21;1.00;;;1.00;;
14373;SDS011;7270;49.004;12.066;2023-03-29T09:48:49;0.90;;;0.90;;
14373;SDS011;7270;49.004;12.066;2023-03-29T09:51:16;0.90;;;0.90;;
14373;SDS011;7270;49.004;12.066;2023-03-29T09:53:44;0.87;;;0.87;;
14373;SDS011;7270;49.004;12.066;2023-03-29T09:56:12;0.90;;;0.90;;
14373;SDS011;7270;49.004;12.066;2023-03-29T09:58:40;0.90;;;0.90;;
14373;SDS011;7270;49.004;12.066;2023-03-29T10:01:07;0.90;;;0.90;;
14373;SDS011;7270;49.004;12.066;2023-03-29T10:03:34;1.00;;;1.00;;
14373;SDS011;7270;49.004;12.066;2023-03-29T10:06:01;0.90;;;0.90;;
14373;SDS011;7270;49.004;12.066;2023-03-29T10:08:29;0.90;;;0.90;;
14373;SDS011;7270;49.004;12.066;2023-03-29T10:10:56;1.00;;;1.00;;
14373;SDS011;7270;49.004;12.066;2023-03-29T10:13:27;1.00;;;1.00;;
14373;SDS011;7270;49.004;12.066;2023-03-29T10:15:59;1.00;;;1.00;;
14373;SDS011;7270;49.004;12.066;2023-03-29T10:18:26;1.00;;;1.00;;
14373;SDS011;7270;49.004;12.066;2023-03-29T10:20:56;1.00;;;1.00;;
14373;SDS011;7270;49.004;12.066;2023-03-29T10:23:23;1.00;;;1.00;;
14373;SDS011;7270;49.004;12.066;2023-03-29T10:25:49;0.90;;;0.90;;
14373;SDS011;7270;49.004;12.066;2023-03-29T10:28:16;0.90;;;0.90;;
14373;SDS011;7270;49.004;12.066;2023-03-29T10:30:51;0.90;;;0.90;;
14373;SDS011;7270;49.004;12.066;2023-03-29T10:33:18;0.90;;;0.90;;
14373;SDS011;7270;49.004;12.066;2023-03-29T10:35:45;1.00;;;1.00;;
14373;SDS011;7270;49.004;12.066;2023-03-29T10:40:44;1.00;;;1.00;;
14373;SDS011;7270;49.004;12.066;2023-03-29T10:43:13;0.90;;;0.90;;
14373;SDS011;7270;49.004;12.066;2023-03-29T10:45:40;1.00;;;1.00;;
14373;SDS011;7270;49.004;12.066;2023-03-29T10:48:09;1.00;;;1.00;;
14373;SDS011;7270;49.004;12.066;2023-03-29T10:50:37;1.10;;;1.10;;
14373;SDS011;7270;49.004;12.066;2023-03-29T10:53:04;1.00;;;1.00;;
14373;SDS011;7270;49.004;12.066;2023-03-29T10:55:33;1.00;;;1.00;;
14373;SDS011;7270;49.004;12.066;2023-03-29T10:58:03;0.90;;;0.90;;
14373;SDS011;7270;49.004;12.066;2023-03-29T11:00:34;1.10;;;1.10;;
14373;SDS011;7270;49.004;12.066;2023-03-29T11:03:15;1.00;;;1.00;;
14373;SDS011;7270;49.004;12.066;2023-03-29T11:05:49;1.00;;;1.00;;
14373;SDS011;7270;49.004;12.066;2023-03-29T11:08:20;1.00;;;1.00;;
14373;SDS011;7270;49.004;12.066;2023-03-29T11:10:53;1.00;;;1.00;;
14373;SDS011;7270;49.004;12.066;2023-03-29T11:13:23;1.00;;;1.00;;
14373;SDS011;7270;49.004;12.066;2023-03-29T11:15:54;1.00;;;1.00;;
14373;SDS011;7270;49.004;12.066;2023-03-29T11:21:11;1.10;;;1.10;;
14373;SDS011;7270;49.004;12.066;2023-03-29T11:23:44;1.00;;;1.00;;
14373;SDS011;7270;49.004;12.066;2023-03-29T11:26:20;0.90;;;0.90;;
14373;SDS011;7270;49.004;12.066;2023-03-29T11:28:48;1.00;;;1.00;;
14373;SDS011;7270;49.004;12.066;2023-03-29T11:31:19;1.00;;;1.00;;
14373;SDS011;7270;49.004;12.066;2023-03-29T11:33:50;1.10;;;1.10;;
14373;SDS011;7270;49.004;12.066;2023-03-29T11:36:27;1.10;;;1.10;;
14373;SDS011;7270;49.004;12.066;2023-03-29T11:38:57;0.93;;;0.93;;
14373;SDS011;7270;49.004;12.066;2023-03-29T11:41:25;1.00;;;1.00;;
14373;SDS011;7270;49.004;12.066;2023-03-29T11:43:53;1.00;;;1.00;;
14373;SDS011;7270;49.004;12.066;2023-03-29T11:46:25;1.10;;;1.10;;
14373;SDS011;7270;49.004;12.066;2023-03-29T11:48:54;1.00;;;1.00;;
14373;SDS011;7270;49.004;12.066;2023-03-29T11:51:25;1.10;;;1.10;;
14373;SDS011;7270;49.004;12.066;2023-03-29T11:53:54;1.00;;;1.00;;
14373;SDS011;7270;49.004;12.066;2023-03-29T11:56:25;0.97;;;0.97;;
14373;SDS011;7270;49.004;12.066;2023-03-29T11:58:54;1.00;;;1.00;;
14373;SDS011;7270;49.004;12.066;2023-03-29T12:01:24;0.90;;;0.90;;
14373;SDS011;7270;49.004;12.066;2023-03-29T12:03:54;1.00;;;1.00;;
14373;SDS011;7270;49.004;12.066;2023-03-29T12:06:22;0.93;;;0.93;;
14373;SDS011;7270;49.004;12.066;2023-03-29T12:08:51;1.00;;;1.00;;
14373;SDS011;7270;49.004;12.066;2023-03-29T12:11:21;1.00;;;1.00;;
14373;SDS011;7270;49.004;12.066;2023-03-29T12:13:49;0.90;;;0.90;;
14373;SDS011;7270;49.004;12.066;2023-03-29T12:16:20;1.00;;;1.00;;
14373;SDS011;7270;49.004;12.066;2023-03-29T12:18:51;0.93;;;0.93;;
14373;SDS011;7270;49.004;12.066;2023-03-29T12:21:20;0.90;;;0.90;;
14373;SDS011;7270;49.004;12.066;2023-03-29T12:23:47;0.90;;;0.90;;
14373;SDS011;7270;49.004;12.066;2023-03-29T12:26:16;1.00;;;1.00;;
14373;SDS011;7270;49.004;12.066;2023-03-29T12:28:51;0.90;;;0.90;;
14373;SDS011;7270;49.004;12.066;2023-03-29T12:31:22;1.00;;;1.00;;
14373;SDS011;7270;49.004;12.066;2023-03-29T12:33:57;0.90;;;0.90;;
14373;SDS011;7270;49.004;12.066;2023-03-29T12:36:34;0.80;;;0.80;;
14373;SDS011;7270;49.004;12.066;2023-03-29T12:39:09;1.00;;;1.00;;
14373;SDS011;7270;49.004;12.066;2023-03-29T12:41:37;0.90;;;0.90;;
14373;SDS011;7270;49.004;12.066;2023-03-29T12:44:05;1.00;;;1.00;;
14373;SDS011;7270;49.004;12.066;2023-03-29T12:46:32;0.90;;;0.90;;
14373;SDS011;7270;49.004;12.066;2023-03-29T12:48:59;1.00;;;1.00;;
14373;SDS011;7270;49.004;12.066;2023-03-29T12:51:30;1.00;;;1.00;;
14373;SDS011;7270;49.004;12.066;2023-03-29T12:54:00;1.00;;;1.00;;
14373;SDS011;7270;49.004;12.066;2023-03-29T12:56:34;1.10;;;1.10;;
14373;SDS011;7270;49.004;12.066;2023-03-29T12:59:05;1.10;;;1.10;;
14373;SDS011;7270;49.004;12.066;2023-03-29T13:01:55;1.10;;;1.10;;
14373;SDS011;7270;49.004;12.066;2023-03-29T13:04:34;1.20;;;1.20;;
14373;SDS011;7270;49.004;12.066;2023-03-29T13:07:01;1.40;;;1.30;;
14373;SDS011;7270;49.004;12.066;2023-03-29T13:09:32;1.40;;;1.30;;
14373;SDS011;7270;49.004;12.066;2023-03-29T13:12:12;1.23;;;1.20;;
14373;SDS011;7270;49.004;12.066;2023-03-29T13:14:48;1.20;;;1.20;;
14373;SDS011;7270;49.004;12.066;2023-03-29T13:17:18;1.30;;;1.20;;
14373;SDS011;7270;49.004;12.066;2023-03-29T13:19:48;1.40;;;1.30;;
14373;SDS011;7270;49.004;12.066;2023-03-29T13:22:19;1.40;;;1.30;;
14373;SDS011;7270;49.004;12.066;2023-03-29T13:24:58;1.30;;;1.20;;
14373;SDS011;7270;49.004;12.066;2023-03-29T13:27:40;1.10;;;1.10;;
14373;SDS011;7270;49.004;12.066;2023-03-29T13:30:19;1.00;;;1.00;;
14373;SDS011;7270;49.004;12.066;2023-03-29T13:32:49;1.00;;;1.00;;
14373;SDS011;7270;49.004;12.066;2023-03-29T13:35:21;0.90;;;0.90;;
14373;SDS011;7270;49.004;12.066;2023-03-29T13:37:55;1.00;;;1.00;;
14373;SDS011;7270;49.004;12.066;2023-03-29T13:40:41;0.90;;;0.90;;
14373;SDS011;7270;49.004;12.066;2023-03-29T13:43:08;0.90;;;0.90;;
14373;SDS011;7270;49.004;12.066;2023-03-29T13:45:36;0.90;;;0.90;;
14373;SDS011;7270;49.004;12.066;2023-03-29T13:48:04;0.90;;;0.90;;
14373;SDS011;7270;49.004;12.066;2023-03-29T13:50:35;1.00;;;1.00;;
14373;SDS011;7270;49.004;12.066;2023-03-29T13:53:03;0.93;;;0.93;;
14373;SDS011;7270;49.004;12.066;2023-03-29T13:55:32;0.90;;;0.90;;
14373;SDS011;7270;49.004;12.066;2023-03-29T13:58:02;0.90;;;0.90;;
14373;SDS011;7270;49.004;12.066;2023-03-29T14:00:31;0.90;;;0.90;;
14373;SDS011;7270;49.004;12.066;2023-03-29T14:03:02;0.80;;;0.80;;
14373;SDS011;7270;49.004;12.066;2023-03-29T14:05:31;0.90;;;0.90;;
14373;SDS011;7270;49.004;12.066;2023-03-29T14:08:03;0.73;;;0.73;;
14373;SDS011;7270;49.004;12.066;2023-03-29T14:10:39;1.00;;;1.00;;
14373;SDS011;7270;49.004;12.066;2023-03-29T14:13:09;0.90;;;0.90;;
14373;SDS011;7270;49.004;12.066;2023-03-29T14:15:39;0.80;;;0.80;;
14373;SDS011;7270;49.004;12.066;2023-03-29T14:18:09;0.90;;;0.90;;
14373;SDS011;7270;49.004;12.066;2023-03-29T14:20:35;1.00;;;1.00;;
14373;SDS011;7270;49.004;12.066;2023-03-29T14:23:07;1.00;;;1.00;;
14373;SDS011;7270;49.004;12.066;2023-03-29T14:25:35;1.00;;;1.00;;
14373;SDS011;7270;49.004;12.066;2023-03-29T14:28:10;0.90;;;0.90;;
14373;SDS011;7270;49.004;12.066;2023-03-29T14:30:37;0.90;;;0.90;;
14373;SDS011;7270;49.004;12.066;2023-03-29T14:33:03;1.00;;;1.00;;
14373;SDS011;7270;49.004;12.066;2023-03-29T14:35:31;1.00;;;1.00;;
14373;SDS011;7270;49.004;12.066;2023-03-29T14:37:58;0.90;;;0.90;;
14373;SDS011;7270;49.004;12.066;2023-03-29T14:40:24;0.90;;;0.90;;
14373;SDS011;7270;49.004;12.066;2023-03-29T14:42:51;1.00;;;1.00;;
14373;SDS011;7270;49.004;12.066;2023-03-29T14:45:19;0.83;;;0.83;;
14373;SDS011;7270;49.004;12.066;2023-03-29T14:47:47;0.90;;;0.90;;
14373;SDS011;7270;49.004;12.066;2023-03-29T14:50:16;0.90;;;0.90;;
14373;SDS011;7270;49.004;12.066;2023-03-29T14:52:44;1.00;;;1.00;;
14373;SDS011;7270;49.004;12.066;2023-03-29T14:55:11;0.90;;;0.90;;
14373;SDS011;7270;49.004;12.066;2023-03-29T14:57:39;0.90;;;0.90;;
14373;SDS011;7270;49.004;12.066;2023-03-29T15:00:15;0.90;;;0.90;;
14373;SDS011;7270;49.004;12.066;2023-03-29T15:02:47;0.93;;;0.93;;